sensor_id;sensor_type;location;lat;lon;timestamp;pressure;altitude;pressure_sealevel;temperature;humidity
64610;BME280;51019;46.090;6.350;2024-02-04T00:02:18;97905.38;;;1.44;100.00
64610;BME280;51019;46.090;6.350;2024-02-04T00:04:46;97755.06;;;0.62;100.00
64610;BME280;51019;46.090;6.350;2024-02-04T00:07:13;97877.13;;;1.40;100.00
64610;BME280;51019;46.090;6.350;2024-02-04T00:09:40;97809.75;;;0.71;100.00
64610;BME280;51019;46.090;6.350;2024-02-04T00:12:09;97749.78;;;0.14;100.00
64610;BME280;51019;46.090;6.350;2024-02-04T00:14:36;97870.91;;;1.45;100.00
64610;BME280;51019;46.090;6.350;2024-02-04T00:17:06;97878.19;;;1.34;100.00
64610;BME280;51019;46.090;6.350;2024-02-04T00:19:33;97875.84;;;1.52;100.00
64610;BME280;51019;46.090;6.350;2024-02-04T00:22:01;97836.13;;;1.31;100.00
64610;BME280;51019;46.090;6.350;2024-02-04T00:24:28;97748.38;;;0.56;100.00
64610;BME280;51019;46.090;6.350;2024-02-04T00:26:55;97905.16;;;1.51;100.00
64610;BME280;51019;46.090;6.350;2024-02-04T00:29:22;97839.38;;;1.36;100.00
64610;BME280;51019;46.090;6.350;2024-02-04T00:31:49;97834.38;;;1.31;100.00
64610;BME280;51019;46.090;6.350;2024-02-04T00:34:18;97872.75;;;1.42;100.00
64610;BME280;51019;46.090;6.350;2024-02-04T00:36:45;97896.56;;;1.50;100.00
64610;BME280;51019;46.090;6.350;2024-02-04T00:39:13;97901.69;;;1.52;100.00
64610;BME280;51019;46.090;6.350;2024-02-04T00:41:41;97892.19;;;1.27;100.00
64610;BME280;51019;46.090;6.350;2024-02-04T00:44:08;97789.13;;;0.96;100.00
64610;BME280;51019;46.090;6.350;2024-02-04T00:46:35;97903.78;;;1.65;100.00
64610;BME280;51019;46.090;6.350;2024-02-04T00:49:02;97759.09;;;0.69;100.00
64610;BME280;51019;46.090;6.350;2024-02-04T00:51:31;97888.91;;;1.47;100.00
64610;BME280;51019;46.090;6.350;2024-02-04T00:53:58;97783.06;;;0.97;100.00
64610;BME280;51019;46.090;6.350;2024-02-04T00:56:25;97829.06;;;1.11;100.00
64610;BME280;51019;46.090;6.350;2024-02-04T00:58:53;97852.13;;;0.91;100.00
64610;BME280;51019;46.090;6.350;2024-02-04T01:01:20;97871.94;;;1.15;100.00
64610;BME280;51019;46.090;6.350;2024-02-04T01:03:47;97888.28;;;1.16;100.00
64610;BME280;51019;46.090;6.350;2024-02-04T01:06:14;97897.69;;;1.43;100.00
64610;BME280;51019;46.090;6.350;2024-02-04T01:08:43;97849.28;;;1.71;100.00
64610;BME280;51019;46.090;6.350;2024-02-04T01:11:10;97867.19;;;1.53;100.00
64610;BME280;51019;46.090;6.350;2024-02-04T01:13:38;97863.59;;;1.33;100.00
64610;BME280;51019;46.090;6.350;2024-02-04T01:16:05;97860.25;;;1.55;100.00
64610;BME280;51019;46.090;6.350;2024-02-04T01:18:32;97835.22;;;1.07;100.00
64610;BME280;51019;46.090;6.350;2024-02-04T01:20:59;97832.88;;;1.01;100.00
64610;BME280;51019;46.090;6.350;2024-02-04T01:23:27;97769.69;;;0.35;100.00
64610;BME280;51019;46.090;6.350;2024-02-04T01:25:56;97871.13;;;0.63;100.00
64610;BME280;51019;46.090;6.350;2024-02-04T01:28:23;97806.78;;;0.32;100.00
64610;BME280;51019;46.090;6.350;2024-02-04T01:30:50;97842.72;;;0.63;100.00
64610;BME280;51019;46.090;6.350;2024-02-04T01:33:17;97904.25;;;1.02;100.00
64610;BME280;51019;46.090;6.350;2024-02-04T01:35:44;97833.38;;;0.59;100.00
64610;BME280;51019;46.090;6.350;2024-02-04T01:38:11;97849.38;;;0.70;100.00
64610;BME280;51019;46.090;6.350;2024-02-04T01:40:38;97788.75;;;0.05;100.00
64610;BME280;51019;46.090;6.350;2024-02-04T01:43:08;97891.50;;;0.71;100.00
64610;BME280;51019;46.090;6.350;2024-02-04T01:45:35;97813.66;;;0.32;100.00
64610;BME280;51019;46.090;6.350;2024-02-04T01:48:03;97925.69;;;1.04;100.00
64610;BME280;51019;46.090;6.350;2024-02-04T01:50:30;97923.25;;;0.73;100.00
64610;BME280;51019;46.090;6.350;2024-02-04T01:52:58;97881.53;;;0.60;100.00
64610;BME280;51019;46.090;6.350;2024-02-04T01:55:25;97939.66;;;0.98;100.00
64610;BME280;51019;46.090;6.350;2024-02-04T01:57:53;97930.84;;;1.30;100.00
64610;BME280;51019;46.090;6.350;2024-02-04T02:00:22;97942.19;;;1.00;100.00
64610;BME280;51019;46.090;6.350;2024-02-04T02:02:49;97923.72;;;0.86;100.00
64610;BME280;51019;46.090;6.350;2024-02-04T02:05:19;97893.53;;;0.61;100.00
64610;BME280;51019;46.090;6.350;2024-02-04T02:07:46;97926.44;;;1.07;100.00
64610;BME280;51019;46.090;6.350;2024-02-04T02:10:17;97813.38;;;0.41;100.00
64610;BME280;51019;46.090;6.350;2024-02-04T02:12:48;97860.63;;;0.68;100.00
64610;BME280;51019;46.090;6.350;2024-02-04T02:15:23;97915.75;;;1.18;100.00
64610;BME280;51019;46.090;6.350;2024-02-04T02:17:55;97875.59;;;1.09;100.00
64610;BME280;51019;46.090;6.350;2024-02-04T02:20:29;97900.00;;;0.75;100.00
64610;BME280;51019;46.090;6.350;2024-02-04T02:23:06;97887.44;;;0.90;100.00
64610;BME280;51019;46.090;6.350;2024-02-04T02:25:36;97881.00;;;1.02;100.00
64610;BME280;51019;46.090;6.350;2024-02-04T02:28:04;97806.91;;;0.54;100.00
64610;BME280;51019;46.090;6.350;2024-02-04T02:30:32;97805.09;;;0.31;100.00
64610;BME280;51019;46.090;6.350;2024-02-04T02:32:59;97826.84;;;0.49;100.00
64610;BME280;51019;46.090;6.350;2024-02-04T02:35:27;97844.13;;;0.73;100.00
64610;BME280;51019;46.090;6.350;2024-02-04T02:38:03;97847.59;;;0.72;100.00
64610;BME280;51019;46.090;6.350;2024-02-04T02:40:37;97827.38;;;0.85;100.00
64610;BME280;51019;46.090;6.350;2024-02-04T02:43:05;97758.44;;;0.64;100.00
64610;BME280;51019;46.090;6.350;2024-02-04T02:45:34;97793.41;;;0.72;100.00
64610;BME280;51019;46.090;6.350;2024-02-04T02:48:02;97811.00;;;1.11;100.00
64610;BME280;51019;46.090;6.350;2024-02-04T02:50:31;97782.66;;;1.09;100.00
64610;BME280;51019;46.090;6.350;2024-02-04T02:52:59;97841.69;;;0.94;100.00
64610;BME280;51019;46.090;6.350;2024-02-04T02:55:26;97848.59;;;0.93;100.00
64610;BME280;51019;46.090;6.350;2024-02-04T02:57:55;97734.34;;;0.12;100.00
64610;BME280;51019;46.090;6.350;2024-02-04T03:00:22;97863.94;;;0.98;100.00
64610;BME280;51019;46.090;6.350;2024-02-04T03:02:49;97836.28;;;0.50;100.00
64610;BME280;51019;46.090;6.350;2024-02-04T03:05:16;97812.53;;;0.41;100.00
64610;BME280;51019;46.090;6.350;2024-02-04T03:07:43;97867.97;;;0.80;100.00
64610;BME280;51019;46.090;6.350;2024-02-04T03:10:11;97828.78;;;0.43;100.00
64610;BME280;51019;46.090;6.350;2024-02-04T03:12:38;97764.75;;;0.29;100.00
64610;BME280;51019;46.090;6.350;2024-02-04T03:15:08;97848.88;;;0.33;100.00
64610;BME280;51019;46.090;6.350;2024-02-04T03:17:36;97876.06;;;0.43;100.00
64610;BME280;51019;46.090;6.350;2024-02-04T03:20:03;97881.22;;;0.43;100.00
64610;BME280;51019;46.090;6.350;2024-02-04T03:22:31;97748.56;;;-0.29;100.00
64610;BME280;51019;46.090;6.350;2024-02-04T03:24:59;97814.66;;;0.28;100.00
64610;BME280;51019;46.090;6.350;2024-02-04T03:27:26;97885.25;;;0.52;100.00
64610;BME280;51019;46.090;6.350;2024-02-04T03:29:53;97717.63;;;-0.29;100.00
64610;BME280;51019;46.090;6.350;2024-02-04T03:32:22;97811.06;;;0.06;100.00
64610;BME280;51019;46.090;6.350;2024-02-04T03:34:49;97850.28;;;0.15;100.00
64610;BME280;51019;46.090;6.350;2024-02-04T03:37:16;97846.53;;;0.25;100.00
64610;BME280;51019;46.090;6.350;2024-02-04T03:39:43;97822.16;;;0.34;100.00
64610;BME280;51019;46.090;6.350;2024-02-04T03:42:11;97870.31;;;0.61;100.00
64610;BME280;51019;46.090;6.350;2024-02-04T03:44:38;97824.31;;;0.48;100.00
64610;BME280;51019;46.090;6.350;2024-02-04T03:47:05;97802.16;;;0.42;100.00
64610;BME280;51019;46.090;6.350;2024-02-04T03:49:34;97786.00;;;0.11;100.00
64610;BME280;51019;46.090;6.350;2024-02-04T03:52:01;97811.34;;;-0.04;100.00
64610;BME280;51019;46.090;6.350;2024-02-04T03:54:28;97797.94;;;-0.15;100.00
64610;BME280;51019;46.090;6.350;2024-02-04T03:56:56;97844.38;;;0.12;100.00
64610;BME280;51019;46.090;6.350;2024-02-04T03:59:23;97876.28;;;0.35;100.00
64610;BME280;51019;46.090;6.350;2024-02-04T04:01:50;97809.28;;;0.08;100.00
64610;BME280;51019;46.090;6.350;2024-02-04T04:04:18;97887.41;;;0.38;100.00
64610;BME280;51019;46.090;6.350;2024-02-04T04:06:48;97729.03;;;-0.65;100.00
64610;BME280;51019;46.090;6.350;2024-02-04T04:09:15;97824.69;;;-0.19;100.00
64610;BME280;51019;46.090;6.350;2024-02-04T04:11:42;97903.16;;;0.28;100.00
64610;BME280;51019;46.090;6.350;2024-02-04T04:14:09;97897.81;;;0.34;100.00
64610;BME280;51019;46.090;6.350;2024-02-04T04:16:36;97822.38;;;-0.28;100.00
64610;BME280;51019;46.090;6.350;2024-02-04T04:19:03;97868.13;;;-0.36;100.00
64610;BME280;51019;46.090;6.350;2024-02-04T04:21:30;97738.31;;;-0.89;100.00
64610;BME280;51019;46.090;6.350;2024-02-04T04:24:00;97927.31;;;0.26;100.00
64610;BME280;51019;46.090;6.350;2024-02-04T04:26:27;97892.13;;;-0.34;100.00
64610;BME280;51019;46.090;6.350;2024-02-04T04:28:54;97932.34;;;-0.30;100.00
64610;BME280;51019;46.090;6.350;2024-02-04T04:31:21;97883.00;;;-0.16;100.00
64610;BME280;51019;46.090;6.350;2024-02-04T04:33:48;97854.19;;;-0.29;100.00
64610;BME280;51019;46.090;6.350;2024-02-04T04:36:18;97946.03;;;0.03;100.00
64610;BME280;51019;46.090;6.350;2024-02-04T04:38:45;97851.84;;;-0.37;100.00
64610;BME280;51019;46.090;6.350;2024-02-04T04:41:17;97953.38;;;0.17;100.00
64610;BME280;51019;46.090;6.350;2024-02-04T04:43:44;97954.03;;;0.23;100.00
64610;BME280;51019;46.090;6.350;2024-02-04T04:46:12;97950.50;;;0.26;100.00
64610;BME280;51019;46.090;6.350;2024-02-04T04:48:39;97946.16;;;-0.02;100.00
64610;BME280;51019;46.090;6.350;2024-02-04T04:51:07;97958.28;;;0.24;100.00
64610;BME280;51019;46.090;6.350;2024-02-04T04:53:36;97988.81;;;0.10;100.00
64610;BME280;51019;46.090;6.350;2024-02-04T04:56:04;97994.91;;;0.06;100.00
64610;BME280;51019;46.090;6.350;2024-02-04T04:58:33;98001.00;;;0.04;100.00
64610;BME280;51019;46.090;6.350;2024-02-04T05:01:00;97946.84;;;-0.26;100.00
64610;BME280;51019;46.090;6.350;2024-02-04T05:03:27;97986.00;;;0.18;100.00
64610;BME280;51019;46.090;6.350;2024-02-04T05:05:54;97878.56;;;-0.71;100.00
64610;BME280;51019;46.090;6.350;2024-02-04T05:08:21;97957.19;;;-0.27;100.00
64610;BME280;51019;46.090;6.350;2024-02-04T05:10:48;97947.00;;;-0.32;100.00
64610;BME280;51019;46.090;6.350;2024-02-04T05:13:16;97990.56;;;0.08;100.00
64610;BME280;51019;46.090;6.350;2024-02-04T05:15:45;97899.00;;;-0.99;100.00
64610;BME280;51019;46.090;6.350;2024-02-04T05:18:12;97948.06;;;-0.39;100.00
64610;BME280;51019;46.090;6.350;2024-02-04T05:20:39;97976.06;;;0.04;100.00
64610;BME280;51019;46.090;6.350;2024-02-04T05:23:06;97902.78;;;-0.46;100.00
64610;BME280;51019;46.090;6.350;2024-02-04T05:25:33;97886.66;;;-0.54;100.00
64610;BME280;51019;46.090;6.350;2024-02-04T05:28:00;97974.03;;;0.15;100.00
64610;BME280;51019;46.090;6.350;2024-02-04T05:30:27;97935.47;;;-0.19;100.00
64610;BME280;51019;46.090;6.350;2024-02-04T05:32:57;97956.38;;;0.02;100.00
64610;BME280;51019;46.090;6.350;2024-02-04T05:35:24;97866.78;;;-0.80;100.00
64610;BME280;51019;46.090;6.350;2024-02-04T05:37:51;97952.75;;;-0.22;100.00
64610;BME280;51019;46.090;6.350;2024-02-04T05:40:18;97956.88;;;-0.15;100.00
64610;BME280;51019;46.090;6.350;2024-02-04T05:42:46;97881.91;;;-0.37;100.00
64610;BME280;51019;46.090;6.350;2024-02-04T05:45:13;97940.06;;;0.01;100.00
64610;BME280;51019;46.090;6.350;2024-02-04T05:47:40;97855.94;;;-0.60;100.00
64610;BME280;51019;46.090;6.350;2024-02-04T05:50:10;97943.38;;;0.06;100.00
64610;BME280;51019;46.090;6.350;2024-02-04T05:52:38;97878.44;;;-0.36;100.00
64610;BME280;51019;46.090;6.350;2024-02-04T05:55:06;97904.69;;;-0.54;100.00
64610;BME280;51019;46.090;6.350;2024-02-04T05:57:33;97927.16;;;-0.59;100.00
64610;BME280;51019;46.090;6.350;2024-02-04T06:00:00;97947.75;;;-0.27;100.00
64610;BME280;51019;46.090;6.350;2024-02-04T06:02:27;97853.69;;;-0.73;100.00
64610;BME280;51019;46.090;6.350;2024-02-04T06:04:54;97852.81;;;-1.04;100.00
64610;BME280;51019;46.090;6.350;2024-02-04T06:07:23;97933.06;;;-0.56;100.00
64610;BME280;51019;46.090;6.350;2024-02-04T06:09:50;97807.38;;;-1.37;100.00
64610;BME280;51019;46.090;6.350;2024-02-04T06:12:17;97830.25;;;-1.27;100.00
64610;BME280;51019;46.090;6.350;2024-02-04T06:14:45;97965.91;;;-0.33;100.00
64610;BME280;51019;46.090;6.350;2024-02-04T06:17:11;97861.00;;;-0.90;100.00
64610;BME280;51019;46.090;6.350;2024-02-04T06:19:38;97820.72;;;-1.23;100.00
64610;BME280;51019;46.090;6.350;2024-02-04T06:22:06;97949.41;;;-0.24;100.00
64610;BME280;51019;46.090;6.350;2024-02-04T06:24:35;97917.47;;;-0.20;100.00
64610;BME280;51019;46.090;6.350;2024-02-04T06:27:04;97921.34;;;-0.67;100.00
64610;BME280;51019;46.090;6.350;2024-02-04T06:29:32;97799.25;;;-1.90;100.00
64610;BME280;51019;46.090;6.350;2024-02-04T06:31:59;97912.69;;;-0.97;100.00
64610;BME280;51019;46.090;6.350;2024-02-04T06:34:26;97846.25;;;-1.14;100.00
64610;BME280;51019;46.090;6.350;2024-02-04T06:36:53;97949.22;;;-0.18;100.00
64610;BME280;51019;46.090;6.350;2024-02-04T06:39:20;97947.50;;;-0.19;100.00
64610;BME280;51019;46.090;6.350;2024-02-04T06:41:49;97871.72;;;-0.73;100.00
64610;BME280;51019;46.090;6.350;2024-02-04T06:44:16;97939.03;;;-0.23;100.00
64610;BME280;51019;46.090;6.350;2024-02-04T06:46:44;97907.50;;;-0.63;100.00
64610;BME280;51019;46.090;6.350;2024-02-04T06:49:11;97921.34;;;-0.67;100.00
64610;BME280;51019;46.090;6.350;2024-02-04T06:51:43;97823.94;;;-1.14;100.00
64610;BME280;51019;46.090;6.350;2024-02-04T06:54:10;97896.00;;;-0.50;100.00
64610;BME280;51019;46.090;6.350;2024-02-04T06:56:37;97833.63;;;-0.91;100.00
64610;BME280;51019;46.090;6.350;2024-02-04T06:59:06;97929.63;;;-0.24;100.00
64610;BME280;51019;46.090;6.350;2024-02-04T07:01:33;97803.97;;;-1.05;100.00
64610;BME280;51019;46.090;6.350;2024-02-04T07:04:00;97942.06;;;-0.09;100.00
64610;BME280;51019;46.090;6.350;2024-02-04T07:06:28;97944.66;;;0.21;100.00
64610;BME280;51019;46.090;6.350;2024-02-04T07:08:55;97942.09;;;-0.10;100.00
64610;BME280;51019;46.090;6.350;2024-02-04T07:11:22;97920.91;;;-0.20;100.00
64610;BME280;51019;46.090;6.350;2024-02-04T07:13:49;97947.66;;;-0.24;100.00
64610;BME280;51019;46.090;6.350;2024-02-04T07:16:19;97949.31;;;0.08;100.00
64610;BME280;51019;46.090;6.350;2024-02-04T07:18:46;97951.59;;;0.19;100.00
64610;BME280;51019;46.090;6.350;2024-02-04T07:21:13;97954.44;;;0.10;100.00
64610;BME280;51019;46.090;6.350;2024-02-04T07:23:40;97905.56;;;-0.23;100.00
64610;BME280;51019;46.090;6.350;2024-02-04T07:26:07;97878.28;;;-0.31;100.00
64610;BME280;51019;46.090;6.350;2024-02-04T07:28:35;97943.56;;;0.00;100.00
64610;BME280;51019;46.090;6.350;2024-02-04T07:31:02;97933.53;;;-0.11;100.00
64610;BME280;51019;46.090;6.350;2024-02-04T07:33:31;97909.31;;;-0.34;100.00
64610;BME280;51019;46.090;6.350;2024-02-04T07:35:58;97932.31;;;-0.28;100.00
64610;BME280;51019;46.090;6.350;2024-02-04T07:38:25;97938.41;;;0.00;100.00
64610;BME280;51019;46.090;6.350;2024-02-04T07:40:52;97832.75;;;-0.60;100.00
64610;BME280;51019;46.090;6.350;2024-02-04T07:43:21;97940.28;;;0.23;100.00
64610;BME280;51019;46.090;6.350;2024-02-04T07:45:48;97831.97;;;-0.33;100.00
64610;BME280;51019;46.090;6.350;2024-02-04T07:48:15;97941.72;;;0.61;100.00
64610;BME280;51019;46.090;6.350;2024-02-04T07:50:44;97943.59;;;0.56;100.00
64610;BME280;51019;46.090;6.350;2024-02-04T07:53:11;97829.56;;;-0.10;100.00
64610;BME280;51019;46.090;6.350;2024-02-04T07:55:38;97950.81;;;0.72;100.00
64610;BME280;51019;46.090;6.350;2024-02-04T07:58:05;97959.38;;;1.01;100.00
64610;BME280;51019;46.090;6.350;2024-02-04T08:00:33;97934.28;;;1.04;100.00
64610;BME280;51019;46.090;6.350;2024-02-04T08:03:00;97937.75;;;1.30;100.00
64610;BME280;51019;46.090;6.350;2024-02-04T08:05:27;97948.09;;;1.55;100.00
64610;BME280;51019;46.090;6.350;2024-02-04T08:07:56;97901.28;;;1.62;100.00
64610;BME280;51019;46.090;6.350;2024-02-04T08:10:24;97888.75;;;1.52;100.00
64610;BME280;51019;46.090;6.350;2024-02-04T08:12:51;97939.50;;;2.26;100.00
64610;BME280;51019;46.090;6.350;2024-02-04T08:15:19;97882.03;;;1.71;100.00
64610;BME280;51019;46.090;6.350;2024-02-04T08:17:46;97852.94;;;1.66;100.00
64610;BME280;51019;46.090;6.350;2024-02-04T08:20:13;97832.41;;;1.85;100.00
64610;BME280;51019;46.090;6.350;2024-02-04T08:22:40;97876.84;;;2.61;100.00
64610;BME280;51019;46.090;6.350;2024-02-04T08:25:09;97876.56;;;2.25;100.00
64610;BME280;51019;46.090;6.350;2024-02-04T08:27:37;97902.50;;;2.45;100.00
64610;BME280;51019;46.090;6.350;2024-02-04T08:30:06;97955.66;;;2.98;100.00
64610;BME280;51019;46.090;6.350;2024-02-04T08:32:33;97956.66;;;2.72;100.00
64610;BME280;51019;46.090;6.350;2024-02-04T08:35:00;97971.78;;;2.82;100.00
64610;BME280;51019;46.090;6.350;2024-02-04T08:37:27;97968.59;;;2.98;100.00
64610;BME280;51019;46.090;6.350;2024-02-04T08:39:55;97979.03;;;3.38;100.00
64610;BME280;51019;46.090;6.350;2024-02-04T08:42:36;97969.72;;;3.54;100.00
64610;BME280;51019;46.090;6.350;2024-02-04T08:45:04;97967.00;;;3.96;100.00
64610;BME280;51019;46.090;6.350;2024-02-04T08:47:31;97964.75;;;4.84;100.00
64610;BME280;51019;46.090;6.350;2024-02-04T08:50:00;97944.47;;;4.73;100.00
64610;BME280;51019;46.090;6.350;2024-02-04T08:52:28;97948.25;;;4.85;100.00
64610;BME280;51019;46.090;6.350;2024-02-04T08:54:55;97966.25;;;6.75;100.00
64610;BME280;51019;46.090;6.350;2024-02-04T08:57:23;97914.63;;;7.85;100.00
64610;BME280;51019;46.090;6.350;2024-02-04T08:59:52;97845.63;;;7.61;100.00
64610;BME280;51019;46.090;6.350;2024-02-04T09:02:20;97955.47;;;7.86;100.00
64610;BME280;51019;46.090;6.350;2024-02-04T09:04:46;97943.19;;;7.58;100.00
64610;BME280;51019;46.090;6.350;2024-02-04T09:07:15;97952.84;;;9.13;92.32
64610;BME280;51019;46.090;6.350;2024-02-04T09:09:44;97943.84;;;9.56;89.00
64610;BME280;51019;46.090;6.350;2024-02-04T09:12:12;97932.66;;;10.17;86.49
64610;BME280;51019;46.090;6.350;2024-02-04T09:14:39;97938.34;;;10.24;87.98
64610;BME280;51019;46.090;6.350;2024-02-04T09:17:09;97928.16;;;10.32;87.70
64610;BME280;51019;46.090;6.350;2024-02-04T09:19:39;97934.16;;;11.42;81.14
64610;BME280;51019;46.090;6.350;2024-02-04T09:22:08;97937.97;;;10.54;85.47
64610;BME280;51019;46.090;6.350;2024-02-04T09:24:42;97928.69;;;10.37;88.14
64610;BME280;51019;46.090;6.350;2024-02-04T09:27:10;97917.44;;;10.84;85.75
64610;BME280;51019;46.090;6.350;2024-02-04T09:29:37;97929.53;;;10.74;86.78
64610;BME280;51019;46.090;6.350;2024-02-04T09:32:06;97939.19;;;10.25;92.72
64610;BME280;51019;46.090;6.350;2024-02-04T09:34:35;97918.69;;;10.91;87.54
64610;BME280;51019;46.090;6.350;2024-02-04T09:37:03;97913.59;;;10.28;90.94
64610;BME280;51019;46.090;6.350;2024-02-04T09:39:31;97930.00;;;10.68;90.09
64610;BME280;51019;46.090;6.350;2024-02-04T09:41:59;97938.31;;;10.86;88.41
64610;BME280;51019;46.090;6.350;2024-02-04T09:44:33;97896.59;;;10.83;87.82
64610;BME280;51019;46.090;6.350;2024-02-04T09:47:01;97922.81;;;10.83;87.98
64610;BME280;51019;46.090;6.350;2024-02-04T09:49:30;97934.91;;;11.20;86.22
64610;BME280;51019;46.090;6.350;2024-02-04T09:52:07;97925.88;;;11.94;82.92
64610;BME280;51019;46.090;6.350;2024-02-04T09:54:38;97926.94;;;11.81;82.59
64610;BME280;51019;46.090;6.350;2024-02-04T09:57:08;97933.72;;;11.48;85.26
64610;BME280;51019;46.090;6.350;2024-02-04T09:59:37;97935.78;;;12.80;78.48
64610;BME280;51019;46.090;6.350;2024-02-04T10:02:06;97933.81;;;12.39;79.67
64610;BME280;51019;46.090;6.350;2024-02-04T10:04:35;97927.88;;;12.80;77.08
64610;BME280;51019;46.090;6.350;2024-02-04T10:07:04;97891.72;;;12.61;74.72
64610;BME280;51019;46.090;6.350;2024-02-04T10:09:33;97927.09;;;12.35;77.29
64610;BME280;51019;46.090;6.350;2024-02-04T10:12:00;97938.25;;;13.04;73.34
64610;BME280;51019;46.090;6.350;2024-02-04T10:14:29;97934.28;;;13.73;68.53
64610;BME280;51019;46.090;6.350;2024-02-04T10:16:57;97898.69;;;12.94;69.41
64610;BME280;51019;46.090;6.350;2024-02-04T10:19:24;97890.97;;;13.66;67.50
64610;BME280;51019;46.090;6.350;2024-02-04T10:21:59;97934.84;;;14.39;66.33
64610;BME280;51019;46.090;6.350;2024-02-04T10:24:30;97933.97;;;14.69;63.17
64610;BME280;51019;46.090;6.350;2024-02-04T10:26:58;97934.22;;;15.16;62.66
64610;BME280;51019;46.090;6.350;2024-02-04T10:29:28;97935.34;;;15.23;60.30
64610;BME280;51019;46.090;6.350;2024-02-04T10:31:56;97930.38;;;15.68;57.25
64610;BME280;51019;46.090;6.350;2024-02-04T10:34:28;97927.59;;;15.79;59.41
64610;BME280;51019;46.090;6.350;2024-02-04T10:36:56;97930.50;;;15.76;58.90
64610;BME280;51019;46.090;6.350;2024-02-04T10:39:24;97935.41;;;14.93;61.14
64610;BME280;51019;46.090;6.350;2024-02-04T10:41:56;97929.69;;;16.59;55.92
64610;BME280;51019;46.090;6.350;2024-02-04T10:44:28;97925.91;;;15.78;57.95
64610;BME280;51019;46.090;6.350;2024-02-04T10:47:10;97916.78;;;17.29;53.41
64610;BME280;51019;46.090;6.350;2024-02-04T10:49:47;97926.13;;;16.14;55.92
64610;BME280;51019;46.090;6.350;2024-02-04T10:52:18;97932.19;;;16.70;55.79
64610;BME280;51019;46.090;6.350;2024-02-04T10:54:46;97918.25;;;16.96;54.36
64610;BME280;51019;46.090;6.350;2024-02-04T10:57:20;97904.44;;;17.02;54.46
64610;BME280;51019;46.090;6.350;2024-02-04T10:59:52;97914.03;;;17.38;52.39
64610;BME280;51019;46.090;6.350;2024-02-04T11:02:20;97914.13;;;17.82;51.83
64610;BME280;51019;46.090;6.350;2024-02-04T11:04:49;97907.84;;;17.12;53.19
64610;BME280;51019;46.090;6.350;2024-02-04T11:07:17;97909.72;;;17.20;54.10
64610;BME280;51019;46.090;6.350;2024-02-04T11:09:46;97908.19;;;16.99;53.13
64610;BME280;51019;46.090;6.350;2024-02-04T11:12:19;97911.06;;;16.88;54.22
64610;BME280;51019;46.090;6.350;2024-02-04T11:14:52;97903.09;;;17.33;52.91
64610;BME280;51019;46.090;6.350;2024-02-04T11:17:33;97854.28;;;17.62;50.96
64610;BME280;51019;46.090;6.350;2024-02-04T11:20:21;97896.47;;;17.55;50.74
64610;BME280;51019;46.090;6.350;2024-02-04T11:23:10;97897.91;;;18.71;48.29
64610;BME280;51019;46.090;6.350;2024-02-04T11:25:47;97890.66;;;18.81;48.05
64610;BME280;51019;46.090;6.350;2024-02-04T11:28:21;97798.09;;;16.97;50.01
64610;BME280;51019;46.090;6.350;2024-02-04T11:30:51;97828.47;;;17.90;49.08
64610;BME280;51019;46.090;6.350;2024-02-04T11:33:21;97873.50;;;18.75;47.54
64610;BME280;51019;46.090;6.350;2024-02-04T11:35:59;97878.91;;;19.08;46.48
64610;BME280;51019;46.090;6.350;2024-02-04T11:38:41;97817.72;;;18.25;47.82
64610;BME280;51019;46.090;6.350;2024-02-04T11:41:09;97864.59;;;20.22;44.98
64610;BME280;51019;46.090;6.350;2024-02-04T11:43:40;97873.63;;;20.69;42.18
64610;BME280;51019;46.090;6.350;2024-02-04T11:46:16;97858.88;;;21.20;41.73
64610;BME280;51019;46.090;6.350;2024-02-04T11:48:53;97854.56;;;20.88;40.21
64610;BME280;51019;46.090;6.350;2024-02-04T11:51:23;97856.25;;;21.57;41.04
64610;BME280;51019;46.090;6.350;2024-02-04T11:53:52;97805.25;;;20.61;41.09
64610;BME280;51019;46.090;6.350;2024-02-04T11:56:19;97853.47;;;21.51;39.81
64610;BME280;51019;46.090;6.350;2024-02-04T11:58:48;97847.41;;;19.86;42.83
64610;BME280;51019;46.090;6.350;2024-02-04T12:01:21;97838.88;;;20.62;41.58
64610;BME280;51019;46.090;6.350;2024-02-04T12:03:49;97842.63;;;20.28;41.91
64610;BME280;51019;46.090;6.350;2024-02-04T12:06:17;97843.41;;;20.84;42.08
64610;BME280;51019;46.090;6.350;2024-02-04T12:08:45;97838.31;;;22.48;38.58
64610;BME280;51019;46.090;6.350;2024-02-04T12:11:15;97795.06;;;21.56;40.89
64610;BME280;51019;46.090;6.350;2024-02-04T12:13:45;97827.47;;;21.53;40.49
64610;BME280;51019;46.090;6.350;2024-02-04T12:16:20;97823.50;;;22.45;38.10
64610;BME280;51019;46.090;6.350;2024-02-04T12:18:48;97814.34;;;20.97;40.91
64610;BME280;51019;46.090;6.350;2024-02-04T12:21:16;97811.66;;;22.33;39.17
64610;BME280;51019;46.090;6.350;2024-02-04T12:23:44;97802.69;;;22.40;39.14
64610;BME280;51019;46.090;6.350;2024-02-04T12:26:12;97798.50;;;21.64;39.58
64610;BME280;51019;46.090;6.350;2024-02-04T12:28:39;97794.16;;;21.03;41.52
64610;BME280;51019;46.090;6.350;2024-02-04T12:31:22;97741.16;;;22.85;37.60
64610;BME280;51019;46.090;6.350;2024-02-04T12:33:52;97791.19;;;22.91;37.28
64610;BME280;51019;46.090;6.350;2024-02-04T12:36:23;97777.41;;;20.94;41.53
64610;BME280;51019;46.090;6.350;2024-02-04T12:38:53;97779.75;;;20.89;41.34
64610;BME280;51019;46.090;6.350;2024-02-04T12:41:21;97775.72;;;22.71;37.96
64610;BME280;51019;46.090;6.350;2024-02-04T12:43:50;97790.91;;;22.71;38.35
64610;BME280;51019;46.090;6.350;2024-02-04T12:46:25;97786.59;;;22.04;38.93
64610;BME280;51019;46.090;6.350;2024-02-04T12:48:53;97765.53;;;20.74;40.67
64610;BME280;51019;46.090;6.350;2024-02-04T12:51:24;97721.69;;;22.33;38.37
64610;BME280;51019;46.090;6.350;2024-02-04T12:54:02;97770.38;;;21.77;38.66
64610;BME280;51019;46.090;6.350;2024-02-04T12:56:40;97769.31;;;20.80;40.62
64610;BME280;51019;46.090;6.350;2024-02-04T12:59:08;97741.16;;;22.85;37.88
64610;BME280;51019;46.090;6.350;2024-02-04T13:01:37;97677.13;;;21.90;37.23
64610;BME280;51019;46.090;6.350;2024-02-04T13:04:05;97766.97;;;23.41;36.58
64610;BME280;51019;46.090;6.350;2024-02-04T13:06:38;97746.63;;;24.50;34.62